createdAt,value
2017-10-12T00:00:49.702Z,1008.04
2017-10-12T00:02:02.261Z,1008.07
2017-10-12T00:03:14.821Z,1008.08
2017-10-12T00:04:27.076Z,1008.05
2017-10-12T00:05:39.319Z,1008.05
2017-10-12T00:06:51.886Z,1008
2017-10-12T00:08:03.808Z,1007.95
2017-10-12T00:09:16.054Z,1007.95
2017-10-12T00:10:28.299Z,1007.93
2017-10-12T00:11:40.526Z,1007.98
2017-10-12T00:12:52.792Z,1007.93
2017-10-12T00:14:05.362Z,1007.87
2017-10-12T00:15:17.612Z,1007.88
2017-10-12T00:16:29.553Z,1007.85
2017-10-12T00:17:42.154Z,1007.89
2017-10-12T00:18:54.719Z,1007.86
2017-10-12T00:20:06.992Z,1007.83
2017-10-12T00:21:19.562Z,1007.87
2017-10-12T00:22:32.132Z,1007.8
2017-10-12T00:23:44.682Z,1007.85
2017-10-12T00:24:57.251Z,1007.86
2017-10-12T00:26:09.810Z,1007.87
2017-10-12T00:27:22.364Z,1007.85
2017-10-12T00:28:34.912Z,1007.87
2017-10-12T00:29:47.531Z,1007.86
2017-10-12T00:30:59.454Z,1007.87
2017-10-12T00:32:11.697Z,1007.84
2017-10-12T00:33:24.516Z,1007.84
2017-10-12T00:34:37.088Z,1007.8
2017-10-12T00:35:49.657Z,1007.79
2017-10-12T00:37:01.921Z,1007.75
2017-10-12T00:38:14.473Z,1007.83
2017-10-12T00:39:26.719Z,1007.72
2017-10-12T00:40:38.983Z,1007.74
2017-10-12T00:41:51.237Z,1007.7
2017-10-12T00:43:03.807Z,1007.69
2017-10-12T00:44:16.295Z,1007.67
2017-10-12T00:45:28.547Z,1007.6
2017-10-12T00:46:40.819Z,1007.6
2017-10-12T00:47:53.065Z,1007.66
2017-10-12T00:49:05.313Z,1007.58
2017-10-12T00:50:17.882Z,1007.59
2017-10-12T00:51:30.129Z,1007.62
2017-10-12T00:52:42.396Z,1007.59
2017-10-12T00:53:54.967Z,1007.53
2017-10-12T00:55:07.217Z,1007.58
2017-10-12T00:56:19.792Z,1007.58
2017-10-12T00:57:32.047Z,1007.53
2017-10-12T00:58:44.625Z,1007.52
2017-10-12T00:59:56.873Z,1007.5
2017-10-12T01:01:09.117Z,1007.45
2017-10-12T01:02:21.693Z,1007.45
2017-10-12T01:03:34.261Z,1007.46
2017-10-12T01:04:46.836Z,1007.52
2017-10-12T01:05:59.092Z,1007.48
2017-10-12T01:07:11.325Z,1007.46
2017-10-12T01:08:23.569Z,1007.41
2017-10-12T01:09:35.836Z,1007.35
2017-10-12T01:10:48.407Z,1007.39
2017-10-12T01:12:00.977Z,1007.4
2017-10-12T01:13:13.223Z,1007.36
2017-10-12T01:14:25.794Z,1007.26
2017-10-12T01:15:38.364Z,1007.25
2017-10-12T01:16:50.927Z,1007.27
2017-10-12T01:18:03.173Z,1007.28
2017-10-12T01:19:15.429Z,1007.26
2017-10-12T01:20:27.671Z,1007.25
2017-10-12T01:21:39.916Z,1007.32
2017-10-12T01:22:52.489Z,1007.31
2017-10-12T01:24:05.060Z,1007.32
2017-10-12T01:25:17.629Z,1007.27
2017-10-12T01:26:29.878Z,1007.3
2017-10-12T01:27:42.448Z,1007.25
2017-10-12T01:28:54.691Z,1007.14
2017-10-12T01:30:07.262Z,1007.14
2017-10-12T01:31:19.837Z,1007.14
2017-10-12T01:32:32.080Z,1007.11
2017-10-12T01:33:43.700Z,1007.2
2017-10-12T01:34:56.269Z,1007.22
2017-10-12T01:36:08.844Z,1007.14
2017-10-12T01:37:21.085Z,1007.15
2017-10-12T01:38:33.356Z,1007.16
2017-10-12T01:39:45.276Z,1007.12
2017-10-12T01:40:57.222Z,1007.18
2017-10-12T01:42:09.470Z,1007.12
2017-10-12T01:43:22.040Z,1007.12
2017-10-12T01:44:34.303Z,1007.13
2017-10-12T01:45:46.859Z,1007.14
2017-10-12T01:46:59.101Z,1007.1
2017-10-12T01:48:11.047Z,1007.06
2017-10-12T01:49:23.312Z,1007.17
2017-10-12T01:50:35.880Z,1007.11
2017-10-12T01:51:48.437Z,1007.1
2017-10-12T01:53:00.685Z,1006.99
2017-10-12T01:54:12.927Z,1006.99
2017-10-12T01:55:24.871Z,1006.94
2017-10-12T01:56:37.116Z,1006.93
2017-10-12T01:57:49.686Z,1006.88
2017-10-12T01:59:02.237Z,1006.86
2017-10-12T02:00:14.730Z,1006.83
2017-10-12T02:01:27.302Z,1006.84
2017-10-12T02:02:39.865Z,1006.79
2017-10-12T02:03:52.440Z,1006.77
2017-10-12T02:05:05.029Z,1006.78
2017-10-12T02:06:17.585Z,1006.77
2017-10-12T02:07:30.152Z,1006.72
2017-10-12T02:08:42.722Z,1006.7
2017-10-12T02:09:55.271Z,1006.73
2017-10-12T02:11:07.514Z,1006.75
2017-10-12T02:12:19.781Z,1006.71
2017-10-12T02:13:32.355Z,1006.66
2017-10-12T02:14:44.601Z,1006.72
2017-10-12T02:15:57.172Z,1006.69
2017-10-12T02:17:09.437Z,1006.69
2017-10-12T02:18:21.992Z,1006.71
2017-10-12T02:19:33.909Z,1006.73
2017-10-12T02:20:45.831Z,1006.73
2017-10-12T02:21:58.077Z,1006.73
2017-10-12T02:23:10.647Z,1006.73
2017-10-12T02:24:23.216Z,1006.69
2017-10-12T02:25:35.464Z,1006.7
2017-10-12T02:26:47.708Z,1006.74
2017-10-12T02:27:59.969Z,1006.75
2017-10-12T02:29:12.547Z,1006.7
2017-10-12T02:30:24.823Z,1006.64
2017-10-12T02:31:36.740Z,1006.61
2017-10-12T02:32:49.301Z,1006.64
2017-10-12T02:34:01.858Z,1006.65
2017-10-12T02:35:14.427Z,1006.61
2017-10-12T02:36:26.678Z,1006.64
2017-10-12T02:37:39.248Z,1006.57
2017-10-12T02:38:51.490Z,1006.62
2017-10-12T02:40:03.752Z,1006.63
2017-10-12T02:41:16.329Z,1006.6
2017-10-12T02:42:28.594Z,1006.62
2017-10-12T02:43:42.201Z,1006.59
2017-10-12T02:44:54.458Z,1006.61
2017-10-12T02:46:07.040Z,1006.58
2017-10-12T02:47:19.262Z,1006.61
2017-10-12T02:48:31.528Z,1006.59
2017-10-12T02:49:44.098Z,1006.56
2017-10-12T02:50:56.343Z,1006.53
2017-10-12T02:52:08.620Z,1006.51
2017-10-12T02:53:21.185Z,1006.48
2017-10-12T02:54:33.437Z,1006.45
2017-10-12T02:55:45.378Z,1006.4
2017-10-12T02:56:57.647Z,1006.4
2017-10-12T02:58:10.222Z,1006.37
2017-10-12T02:59:22.790Z,1006.4
2017-10-12T03:00:35.363Z,1006.38
2017-10-12T03:01:47.606Z,1006.32
2017-10-12T03:03:00.182Z,1006.29
2017-10-12T03:04:12.424Z,1006.33
2017-10-12T03:05:24.659Z,1006.34
2017-10-12T03:06:37.217Z,1006.38
2017-10-12T03:07:49.776Z,1006.36
2017-10-12T03:09:02.330Z,1006.35
2017-10-12T03:10:14.574Z,1006.34
2017-10-12T03:11:26.170Z,1006.4
2017-10-12T03:12:38.095Z,1006.36
2017-10-12T03:13:50.663Z,1006.4
2017-10-12T03:15:03.209Z,1006.35
2017-10-12T03:16:15.458Z,1006.34
2017-10-12T03:17:27.374Z,1006.35
2017-10-12T03:18:39.319Z,1006.32
2017-10-12T03:19:51.247Z,1006.29
2017-10-12T03:21:03.162Z,1006.3
2017-10-12T03:22:15.749Z,1006.33
2017-10-12T03:23:27.678Z,1006.32
2017-10-12T03:24:39.623Z,1006.28
2017-10-12T03:25:51.886Z,1006.21
2017-10-12T03:27:04.140Z,1006.19
2017-10-12T03:28:16.686Z,1006.17
2017-10-12T03:29:29.259Z,1006.21
2017-10-12T03:30:41.827Z,1006.27
2017-10-12T03:31:54.076Z,1006.26
2017-10-12T03:33:06.645Z,1006.21
2017-10-12T03:34:18.888Z,1006.23
2017-10-12T03:35:31.134Z,1006.21
2017-10-12T03:36:43.105Z,1006.17
2017-10-12T03:37:55.975Z,1006.23
2017-10-12T03:39:08.546Z,1006.18
2017-10-12T03:40:21.115Z,1006.18
2017-10-12T03:41:33.687Z,1006.16
2017-10-12T03:42:45.937Z,1006.18
2017-10-12T03:43:58.504Z,1006.16
2017-10-12T03:45:10.448Z,1006.16
2017-10-12T03:46:22.697Z,1006.11
2017-10-12T03:47:34.942Z,1006.13
2017-10-12T03:48:47.762Z,1006.15
2017-10-12T03:49:59.699Z,1006.19
2017-10-12T03:51:12.253Z,1006.18
2017-10-12T03:52:24.498Z,1006.12
2017-10-12T03:53:37.069Z,1006.12
2017-10-12T03:54:49.637Z,1006.16
2017-10-12T03:56:01.912Z,1006.15
2017-10-12T03:57:14.155Z,1006.12
2017-10-12T03:58:26.093Z,1006.14
2017-10-12T03:59:38.639Z,1006.05
2017-10-12T04:00:50.584Z,1006.08
2017-10-12T04:02:03.164Z,1006.08
2017-10-12T04:03:15.409Z,1006.04
2017-10-12T04:04:27.980Z,1006.06
2017-10-12T04:05:40.224Z,1006.07
2017-10-12T04:06:52.800Z,1006.12
2017-10-12T04:08:05.066Z,1005.98
2017-10-12T04:09:17.637Z,1005.98
2017-10-12T04:10:29.463Z,1005.97
2017-10-12T04:11:41.703Z,1005.98
2017-10-12T04:12:53.624Z,1006.06
2017-10-12T04:14:05.847Z,1006.09
2017-10-12T04:15:18.415Z,1005.99
2017-10-12T04:16:30.666Z,1005.96
2017-10-12T04:17:42.585Z,1005.88
2017-10-12T04:18:54.827Z,1006.01
2017-10-12T04:20:07.398Z,1006.09
2017-10-12T04:21:19.898Z,1006.09
2017-10-12T04:22:32.142Z,1006
2017-10-12T04:23:44.384Z,1006
2017-10-12T04:24:56.001Z,1005.95
2017-10-12T04:26:08.251Z,1006.04
2017-10-12T04:27:19.863Z,1006.12
2017-10-12T04:28:32.118Z,1006.09
2017-10-12T04:29:44.407Z,1005.95
2017-10-12T04:30:56.984Z,1005.97
2017-10-12T04:32:09.483Z,1006
2017-10-12T04:33:21.725Z,1006.01
2017-10-12T04:34:33.974Z,1006.03
2017-10-12T04:35:46.228Z,1006.07
2017-10-12T04:36:58.179Z,1005.99
2017-10-12T04:38:10.756Z,1006.01
2017-10-12T04:39:23.002Z,1006
2017-10-12T04:40:35.254Z,1006.04
2017-10-12T04:41:47.847Z,1005.99
2017-10-12T04:43:00.694Z,1006.04
2017-10-12T04:44:13.261Z,1005.96
2017-10-12T04:45:25.206Z,1005.89
2017-10-12T04:46:37.132Z,1005.96
2017-10-12T04:47:49.374Z,1005.97
2017-10-12T04:49:01.636Z,1005.86
2017-10-12T04:50:14.213Z,1005.97
2017-10-12T04:51:26.460Z,1005.92
2017-10-12T04:52:39.031Z,1005.92
2017-10-12T04:53:51.618Z,1006
2017-10-12T04:55:04.197Z,1005.89
2017-10-12T04:56:16.766Z,1005.9
2017-10-12T04:57:29.012Z,1005.94
2017-10-12T04:58:41.585Z,1005.93
2017-10-12T04:59:53.831Z,1005.92
2017-10-12T05:01:06.075Z,1005.92
2017-10-12T05:02:18.337Z,1005.91
2017-10-12T05:03:30.920Z,1005.94
2017-10-12T05:04:43.117Z,1005.91
2017-10-12T05:05:55.682Z,1005.97
2017-10-12T05:07:08.255Z,1005.95
2017-10-12T05:08:19.549Z,1005.94
2017-10-12T05:09:31.798Z,1005.89
2017-10-12T05:10:44.365Z,1005.91
2017-10-12T05:11:56.619Z,1005.85
2017-10-12T05:13:09.184Z,1005.89
2017-10-12T05:14:21.426Z,1005.91
2017-10-12T05:15:33.672Z,1005.89
2017-10-12T05:16:46.247Z,1005.92
2017-10-12T05:17:58.814Z,1005.89
2017-10-12T05:19:11.063Z,1005.92
2017-10-12T05:20:22.996Z,1005.89
2017-10-12T05:21:34.300Z,1005.91
2017-10-12T05:22:46.220Z,1005.95
2017-10-12T05:23:58.145Z,1005.89
2017-10-12T05:25:10.389Z,1005.86
2017-10-12T05:26:22.889Z,1005.84
2017-10-12T05:27:35.454Z,1005.9
2017-10-12T05:28:47.700Z,1005.86
2017-10-12T05:30:00.251Z,1005.88
2017-10-12T05:31:12.816Z,1005.9
2017-10-12T05:32:24.737Z,1005.91
2017-10-12T05:33:36.683Z,1005.9
2017-10-12T05:34:48.604Z,1005.93
2017-10-12T05:36:01.200Z,1005.93
2017-10-12T05:37:14.069Z,1006
2017-10-12T05:38:25.990Z,1005.98
2017-10-12T05:39:38.261Z,1006.05
2017-10-12T05:40:50.206Z,1006.07
2017-10-12T05:42:02.789Z,1006.12
2017-10-12T05:43:14.714Z,1006.14
2017-10-12T05:44:26.646Z,1006.04
2017-10-12T05:45:38.934Z,1006.08
2017-10-12T05:46:51.487Z,1006.12
2017-10-12T05:48:04.305Z,1006.13
2017-10-12T05:49:16.882Z,1006.16
2017-10-12T05:50:29.122Z,1006.15
2017-10-12T05:51:41.698Z,1006.15
2017-10-12T05:52:53.938Z,1006.17
2017-10-12T05:54:06.183Z,1006.14
2017-10-12T05:55:18.431Z,1006.16
2017-10-12T05:56:30.676Z,1006.16
2017-10-12T05:57:42.596Z,1006.24
2017-10-12T05:58:54.841Z,1006.22
2017-10-12T06:00:07.416Z,1006.23
2017-10-12T06:01:19.982Z,1006.29
2017-10-12T06:02:32.229Z,1006.28
2017-10-12T06:03:43.829Z,1006.28
2017-10-12T06:04:56.398Z,1006.35
2017-10-12T06:06:08.967Z,1006.38
2017-10-12T06:07:20.915Z,1006.37
2017-10-12T06:08:33.181Z,1006.41
2017-10-12T06:09:45.444Z,1006.44
2017-10-12T06:10:57.698Z,1006.41
2017-10-12T06:12:10.268Z,1006.37
2017-10-12T06:13:22.514Z,1006.38
2017-10-12T06:14:34.761Z,1006.37
2017-10-12T06:15:47.008Z,1006.47
2017-10-12T06:16:59.268Z,1006.49
2017-10-12T06:18:11.522Z,1006.53
2017-10-12T06:19:24.120Z,1006.56
2017-10-12T06:20:36.363Z,1006.57
2017-10-12T06:21:48.608Z,1006.57
2017-10-12T06:23:01.180Z,1006.53
2017-10-12T06:24:13.101Z,1006.55
2017-10-12T06:25:25.676Z,1006.5
2017-10-12T06:26:38.245Z,1006.51
2017-10-12T06:27:50.512Z,1006.45
2017-10-12T06:29:03.106Z,1006.46
2017-10-12T06:30:15.354Z,1006.46
2017-10-12T06:31:27.925Z,1006.48
2017-10-12T06:32:40.169Z,1006.55
2017-10-12T06:33:51.792Z,1006.57
2017-10-12T06:35:04.036Z,1006.63
2017-10-12T06:36:16.605Z,1006.61
2017-10-12T06:37:28.851Z,1006.56
2017-10-12T06:38:41.097Z,1006.64
2017-10-12T06:39:53.718Z,1006.58
2017-10-12T06:41:05.656Z,1006.59
2017-10-12T06:42:17.902Z,1006.6
2017-10-12T06:43:30.458Z,1006.64
2017-10-12T06:44:42.703Z,1006.63
2017-10-12T06:45:55.271Z,1006.67
2017-10-12T06:47:07.217Z,1006.68
2017-10-12T06:48:19.488Z,1006.74
2017-10-12T06:49:31.738Z,1006.7
2017-10-12T06:50:43.982Z,1006.74
2017-10-12T06:51:56.549Z,1006.84
2017-10-12T06:53:08.810Z,1006.83
2017-10-12T06:54:21.364Z,1006.81
2017-10-12T06:55:33.615Z,1006.88
2017-10-12T06:56:46.182Z,1006.88
2017-10-12T06:57:58.430Z,1006.86
2017-10-12T06:59:10.677Z,1006.83
2017-10-12T07:00:22.923Z,1006.83
2017-10-12T07:01:35.500Z,1006.84
2017-10-12T07:02:48.063Z,1006.86
2017-10-12T07:04:00.312Z,1006.9
2017-10-12T07:05:12.555Z,1006.88
2017-10-12T07:06:24.149Z,1006.9
2017-10-12T07:07:36.723Z,1006.86
2017-10-12T07:08:49.288Z,1006.93
2017-10-12T07:10:01.226Z,1006.92
2017-10-12T07:11:13.162Z,1006.98
2017-10-12T07:12:25.404Z,1006.94
2017-10-12T07:13:37.970Z,1007.08
2017-10-12T07:14:50.221Z,1007.16
2017-10-12T07:16:02.465Z,1007.19
2017-10-12T07:17:14.727Z,1007.15
2017-10-12T07:18:26.979Z,1007.09
2017-10-12T07:19:39.550Z,1007.22
2017-10-12T07:20:51.798Z,1007.22
2017-10-12T07:22:03.717Z,1007.13
2017-10-12T07:23:16.288Z,1007.22
2017-10-12T07:24:28.857Z,1007.3
2017-10-12T07:25:40.778Z,1007.28
2017-10-12T07:26:53.349Z,1007.32
2017-10-12T07:28:05.918Z,1007.38
2017-10-12T07:29:18.493Z,1007.39
2017-10-12T07:30:30.427Z,1007.38
2017-10-12T07:31:42.984Z,1007.27
2017-10-12T07:32:55.230Z,1007.28
2017-10-12T07:34:07.490Z,1007.31
2017-10-12T07:35:19.743Z,1007.44
2017-10-12T07:36:31.989Z,1007.39
2017-10-12T07:37:44.235Z,1007.41
2017-10-12T07:38:56.804Z,1007.47
2017-10-12T07:40:09.384Z,1007.5
2017-10-12T07:41:21.620Z,1007.53
2017-10-12T07:42:33.572Z,1007.62
2017-10-12T07:43:45.817Z,1007.6
2017-10-12T07:44:57.737Z,1007.57
2017-10-12T07:46:10.304Z,1007.59
2017-10-12T07:47:22.551Z,1007.57
2017-10-12T07:48:34.820Z,1007.59
2017-10-12T07:49:47.394Z,1007.58
2017-10-12T07:50:59.978Z,1007.57
2017-10-12T07:52:12.233Z,1007.58
2017-10-12T07:53:24.819Z,1007.72
2017-10-12T07:54:37.374Z,1007.88
2017-10-12T07:55:49.326Z,1007.84
2017-10-12T07:57:01.272Z,1007.85
2017-10-12T07:58:13.786Z,1007.82
2017-10-12T07:59:26.023Z,1007.8
2017-10-12T08:00:38.602Z,1007.7
2017-10-12T08:01:50.540Z,1007.74
2017-10-12T08:03:02.476Z,1007.68
2017-10-12T08:04:15.040Z,1007.63
2017-10-12T08:05:27.301Z,1007.69
2017-10-12T08:06:39.548Z,1007.75
2017-10-12T08:07:52.129Z,1007.79
2017-10-12T08:09:04.072Z,1007.84
2017-10-12T08:10:16.642Z,1007.85
2017-10-12T08:11:29.213Z,1007.95
2017-10-12T08:12:41.782Z,1007.95
2017-10-12T08:13:54.034Z,1008.03
2017-10-12T08:15:06.622Z,1008.01
2017-10-12T08:16:18.550Z,1007.91
2017-10-12T08:17:31.117Z,1008.01
2017-10-12T08:18:43.379Z,1007.96
2017-10-12T08:19:55.633Z,1007.88
2017-10-12T08:21:07.881Z,1007.96
2017-10-12T08:22:20.449Z,1007.91
2017-10-12T08:23:33.020Z,1007.87
2017-10-12T08:24:45.590Z,1007.92
2017-10-12T08:25:58.168Z,1007.91
2017-10-12T08:27:10.085Z,1007.88
2017-10-12T08:28:22.676Z,1007.92
2017-10-12T08:29:34.939Z,1007.82
2017-10-12T08:30:47.510Z,1007.87
2017-10-12T08:32:00.095Z,1007.79
2017-10-12T08:33:12.335Z,1007.77
2017-10-12T08:34:24.274Z,1007.76
2017-10-12T08:35:36.851Z,1007.87
2017-10-12T08:36:48.798Z,1007.91
2017-10-12T08:38:01.047Z,1007.93
2017-10-12T08:39:13.307Z,1007.77
2017-10-12T08:40:25.583Z,1007.86
2017-10-12T08:41:37.832Z,1007.87
2017-10-12T08:42:49.753Z,1008.04
2017-10-12T08:44:01.988Z,1007.97
2017-10-12T08:45:13.918Z,1007.93
2017-10-12T08:46:26.487Z,1007.81
2017-10-12T08:47:39.063Z,1007.88
2017-10-12T08:48:51.306Z,1007.91
2017-10-12T08:50:03.552Z,1007.85
2017-10-12T08:51:15.836Z,1007.93
2017-10-12T08:52:27.782Z,1007.87
2017-10-12T08:53:40.386Z,1007.97
2017-10-12T08:54:52.949Z,1007.89
2017-10-12T08:56:05.202Z,1007.91
2017-10-12T08:57:17.773Z,1008.07
2017-10-12T08:58:30.273Z,1007.97
2017-10-12T08:59:42.531Z,1008.04
2017-10-12T09:00:55.108Z,1008.05
2017-10-12T09:02:06.721Z,1008.08
2017-10-12T09:03:18.975Z,1008.16
2017-10-12T09:04:30.898Z,1008.06
2017-10-12T09:05:43.142Z,1008.07
2017-10-12T09:06:55.416Z,1008.13
2017-10-12T09:08:08.000Z,1008.02
2017-10-12T09:09:20.257Z,1008.12
2017-10-12T09:10:32.825Z,1007.96
2017-10-12T09:11:45.070Z,1007.99
2017-10-12T09:12:57.020Z,1008
2017-10-12T09:14:09.590Z,1007.99
2017-10-12T09:15:21.832Z,1008
2017-10-12T09:16:34.402Z,1007.9
2017-10-12T09:17:46.648Z,1007.96
2017-10-12T09:18:58.910Z,1007.99
2017-10-12T09:20:11.165Z,1007.97
2017-10-12T09:21:23.128Z,1008.1
2017-10-12T09:22:35.713Z,1008.11
2017-10-12T09:23:47.969Z,1008.02
2017-10-12T09:25:00.527Z,1008.1
2017-10-12T09:26:13.093Z,1008.21
2017-10-12T09:27:25.365Z,1008.31
2017-10-12T09:28:37.934Z,1008.25
2017-10-12T09:29:50.183Z,1008.29
2017-10-12T09:31:02.750Z,1008.35
2017-10-12T09:32:15.014Z,1008.38
2017-10-12T09:33:27.272Z,1008.34
2017-10-12T09:34:39.853Z,1008.44
2017-10-12T09:35:52.436Z,1008.41
2017-10-12T09:37:04.357Z,1008.36
2017-10-12T09:38:16.615Z,1008.3
2017-10-12T09:39:28.237Z,1008.38
2017-10-12T09:40:40.794Z,1008.5
2017-10-12T09:41:53.362Z,1008.45
2017-10-12T09:43:04.982Z,1008.47
2017-10-12T09:44:16.919Z,1008.32
2017-10-12T09:45:29.175Z,1008.29
2017-10-12T09:46:41.443Z,1008.29
2017-10-12T09:47:53.411Z,1008.33
2017-10-12T09:49:05.663Z,1008.35
2017-10-12T09:50:17.910Z,1008.37
2017-10-12T09:51:30.495Z,1008.48
2017-10-12T09:52:42.434Z,1008.52
2017-10-12T09:53:54.994Z,1008.54
2017-10-12T09:55:07.567Z,1008.68
2017-10-12T09:56:19.811Z,1008.74
2017-10-12T09:57:31.997Z,1008.77
2017-10-12T09:58:44.580Z,1008.8
2017-10-12T09:59:56.521Z,1008.88
2017-10-12T10:01:08.142Z,1008.78
2017-10-12T10:02:20.412Z,1008.91
2017-10-12T10:03:32.661Z,1008.94
2017-10-12T10:04:44.907Z,1008.91
2017-10-12T10:05:57.175Z,1008.98
2017-10-12T10:07:09.437Z,1008.99
2017-10-12T10:08:21.694Z,1009.07
2017-10-12T10:09:34.265Z,1009.09
2017-10-12T10:10:46.832Z,1009.03
2017-10-12T10:11:58.778Z,1009.14
2017-10-12T10:13:11.349Z,1009.03
2017-10-12T10:14:23.919Z,1009.08
2017-10-12T10:15:36.169Z,1009.04
2017-10-12T10:16:48.427Z,1009.04
2017-10-12T10:18:00.680Z,1009.07
2017-10-12T10:19:13.505Z,1009.17
2017-10-12T10:20:26.072Z,1009.08
2017-10-12T10:21:38.644Z,1009.13
2017-10-12T10:22:51.215Z,1009.18
2017-10-12T10:24:03.462Z,1009.22
2017-10-12T10:25:15.705Z,1009.21
2017-10-12T10:26:28.330Z,1009.26
2017-10-12T10:27:40.575Z,1009.29
2017-10-12T10:28:52.817Z,1009.26
2017-10-12T10:30:05.404Z,1009.4
2017-10-12T10:31:17.987Z,1009.42
2017-10-12T10:32:30.558Z,1009.39
2017-10-12T10:33:42.799Z,1009.4
2017-10-12T10:34:55.072Z,1009.33
2017-10-12T10:36:07.314Z,1009.31
2017-10-12T10:37:19.584Z,1009.29
2017-10-12T10:38:32.157Z,1009.31
2017-10-12T10:39:44.728Z,1009.31
2017-10-12T10:40:56.979Z,1009.36
2017-10-12T10:42:08.919Z,1009.44
2017-10-12T10:43:21.192Z,1009.37
2017-10-12T10:44:33.761Z,1009.37
2017-10-12T10:45:46.023Z,1009.36
2017-10-12T10:46:58.580Z,1009.31
2017-10-12T10:48:10.189Z,1009.39
2017-10-12T10:49:22.745Z,1009.41
2017-10-12T10:50:34.667Z,1009.41
2017-10-12T10:51:47.226Z,1009.43
2017-10-12T10:52:59.154Z,1009.44
2017-10-12T10:54:11.399Z,1009.42
2017-10-12T10:55:23.689Z,1009.61
2017-10-12T10:56:35.959Z,1009.5
2017-10-12T10:57:48.211Z,1009.52
2017-10-12T10:59:00.458Z,1009.47
2017-10-12T11:00:13.031Z,1009.61
2017-10-12T11:01:25.651Z,1009.71
2017-10-12T11:02:38.170Z,1009.62
2017-10-12T11:03:50.433Z,1009.72
2017-10-12T11:05:02.690Z,1009.76
2017-10-12T11:06:15.273Z,1009.76
2017-10-12T11:07:27.858Z,1009.76
2017-10-12T11:08:40.427Z,1009.81
2017-10-12T11:09:52.687Z,1009.79
2017-10-12T11:11:04.968Z,1009.83
2017-10-12T11:12:17.535Z,1009.73
2017-10-12T11:13:29.786Z,1009.84
2017-10-12T11:14:42.352Z,1009.98
2017-10-12T11:15:54.614Z,1009.85
2017-10-12T11:17:06.860Z,1009.9
2017-10-12T11:18:18.482Z,1009.88
2017-10-12T11:19:31.037Z,1009.9
2017-10-12T11:20:43.281Z,1010.01
2017-10-12T11:21:55.527Z,1010.01
2017-10-12T11:23:08.096Z,1009.96
2017-10-12T11:24:19.693Z,1010.1
2017-10-12T11:25:31.939Z,1010.05
2017-10-12T11:26:44.188Z,1009.95
2017-10-12T11:27:56.122Z,1010.07
2017-10-12T11:29:08.054Z,1010.01
2017-10-12T11:30:20.297Z,1010.05
2017-10-12T11:31:32.244Z,1009.97
2017-10-12T11:32:44.490Z,1010.08
2017-10-12T11:33:57.057Z,1010.09
2017-10-12T11:35:09.004Z,1010.04
2017-10-12T11:36:21.273Z,1010.01
2017-10-12T11:37:33.510Z,1010.03
2017-10-12T11:38:45.439Z,1009.99
2017-10-12T11:39:57.712Z,1010.03
2017-10-12T11:41:09.998Z,1010.22
2017-10-12T11:42:22.556Z,1010.08
2017-10-12T11:43:35.122Z,1010.13
2017-10-12T11:44:47.698Z,1010.04
2017-10-12T11:45:59.979Z,1010.02
2017-10-12T11:47:11.912Z,1010.15
2017-10-12T11:48:23.832Z,1010.05
2017-10-12T11:49:36.400Z,1010.13
2017-10-12T11:50:48.664Z,1010.03
2017-10-12T11:52:01.234Z,1010.11
2017-10-12T11:53:13.493Z,1010.14
2017-10-12T11:54:25.737Z,1010.08
2017-10-12T11:55:37.980Z,1010.02
2017-10-12T11:56:50.231Z,1010.14
2017-10-12T11:58:02.486Z,1010.13
2017-10-12T11:59:14.741Z,1010.19
2017-10-12T12:00:27.312Z,1010.1
2017-10-12T12:01:39.885Z,1010.25
2017-10-12T12:02:52.133Z,1010.17
2017-10-12T12:04:04.375Z,1010.27
2017-10-12T12:05:16.622Z,1010.33
2017-10-12T12:06:28.865Z,1010.37
2017-10-12T12:07:41.127Z,1010.37
2017-10-12T12:08:53.711Z,1010.36
2017-10-12T12:10:05.654Z,1010.38
2017-10-12T12:11:17.574Z,1010.37
2017-10-12T12:12:30.143Z,1010.31
2017-10-12T12:13:42.409Z,1010.43
2017-10-12T12:14:54.360Z,1010.53
2017-10-12T12:16:06.929Z,1010.34
2017-10-12T12:17:19.178Z,1010.56
2017-10-12T12:18:31.424Z,1010.56
2017-10-12T12:19:43.668Z,1010.39
2017-10-12T12:20:55.267Z,1010.37
2017-10-12T12:22:07.859Z,1010.52
2017-10-12T12:23:20.107Z,1010.55
2017-10-12T12:24:32.674Z,1010.56
2017-10-12T12:25:45.244Z,1010.52
2017-10-12T12:26:57.816Z,1010.4
2017-10-12T12:28:09.739Z,1010.5
2017-10-12T12:29:22.007Z,1010.52
2017-10-12T12:30:33.628Z,1010.63
2017-10-12T12:31:46.198Z,1010.54
2017-10-12T12:32:58.451Z,1010.6
2017-10-12T12:34:10.392Z,1010.68
2017-10-12T12:35:22.635Z,1010.64
2017-10-12T12:36:34.907Z,1010.56
2017-10-12T12:37:47.476Z,1010.77
2017-10-12T12:39:00.064Z,1010.64
2017-10-12T12:40:12.918Z,1010.61
2017-10-12T12:41:25.170Z,1010.66
2017-10-12T12:42:37.737Z,1010.55
2017-10-12T12:43:50.004Z,1010.71
2017-10-12T12:45:02.578Z,1010.74
2017-10-12T12:46:15.171Z,1010.84
2017-10-12T12:47:27.097Z,1010.83
2017-10-12T12:48:39.336Z,1010.85
2017-10-12T12:49:51.914Z,1010.86
2017-10-12T12:51:04.179Z,1010.95
2017-10-12T12:52:16.132Z,1010.95
2017-10-12T12:53:28.721Z,1010.83
2017-10-12T12:54:41.315Z,1010.79
2017-10-12T12:55:53.561Z,1010.82
2017-10-12T12:57:05.507Z,1010.87
2017-10-12T12:58:17.763Z,1010.97
2017-10-12T12:59:30.329Z,1010.98
2017-10-12T13:00:42.573Z,1010.99
2017-10-12T13:01:55.167Z,1010.91
2017-10-12T13:03:07.410Z,1011.05
2017-10-12T13:04:19.356Z,1011.02
2017-10-12T13:05:31.613Z,1011.03
2017-10-12T13:06:43.915Z,1011.08
2017-10-12T13:07:55.848Z,1011.21
2017-10-12T13:09:08.093Z,1011.11
2017-10-12T13:10:20.659Z,1011.27
2017-10-12T13:11:32.905Z,1011.17
2017-10-12T13:12:45.175Z,1011.27
2017-10-12T13:13:57.763Z,1011.26
2017-10-12T13:15:09.691Z,1011.35
2017-10-12T13:16:22.263Z,1011.34
2017-10-12T13:17:34.852Z,1011.37
2017-10-12T13:18:47.420Z,1011.28
2017-10-12T13:19:59.676Z,1011.37
2017-10-12T13:21:12.261Z,1011.3
2017-10-12T13:22:24.191Z,1011.52
2017-10-12T13:23:36.439Z,1011.33
2017-10-12T13:24:49.008Z,1011.42
2017-10-12T13:26:01.578Z,1011.45
2017-10-12T13:27:13.498Z,1011.48
2017-10-12T13:28:26.067Z,1011.49
2017-10-12T13:29:38.014Z,1011.49
2017-10-12T13:30:49.959Z,1011.48
2017-10-12T13:32:02.531Z,1011.43
2017-10-12T13:33:15.131Z,1011.55
2017-10-12T13:34:27.698Z,1011.54
2017-10-12T13:35:40.272Z,1011.61
2017-10-12T13:36:52.843Z,1011.58
2017-10-12T13:38:05.426Z,1011.7
2017-10-12T13:39:17.680Z,1011.58
2017-10-12T13:40:29.616Z,1011.68
2017-10-12T13:41:41.871Z,1011.74
2017-10-12T13:42:54.115Z,1011.75
2017-10-12T13:44:06.362Z,1011.72
2017-10-12T13:45:18.300Z,1011.8
2017-10-12T13:46:30.231Z,1011.68
2017-10-12T13:47:42.176Z,1011.77
2017-10-12T13:48:54.420Z,1011.86
2017-10-12T13:50:06.672Z,1011.75
2017-10-12T13:51:19.237Z,1011.8
2017-10-12T13:52:31.474Z,1011.79
2017-10-12T13:53:43.726Z,1011.92
2017-10-12T13:54:56.297Z,1011.79
2017-10-12T13:56:08.568Z,1011.89
2017-10-12T13:57:21.139Z,1011.94
2017-10-12T13:58:33.710Z,1011.88
2017-10-12T13:59:46.306Z,1011.91
2017-10-12T14:00:58.876Z,1011.95
2017-10-12T14:02:11.451Z,1011.81
2017-10-12T14:03:23.692Z,1011.97
2017-10-12T14:04:36.263Z,1011.91
2017-10-12T14:05:48.187Z,1011.93
2017-10-12T14:07:00.772Z,1011.96
2017-10-12T14:08:13.351Z,1012.12
2017-10-12T14:09:25.927Z,1012
2017-10-12T14:10:38.183Z,1012
2017-10-12T14:11:50.429Z,1012.07
2017-10-12T14:13:02.376Z,1012
2017-10-12T14:14:14.309Z,1012.01
2017-10-12T14:15:26.550Z,1012.06
2017-10-12T14:16:39.124Z,1012.06
2017-10-12T14:17:51.647Z,1012.11
2017-10-12T14:19:03.886Z,1012.13
2017-10-12T14:20:16.158Z,1012.1
2017-10-12T14:21:28.726Z,1012.19
2017-10-12T14:22:41.299Z,1012.24
2017-10-12T14:23:53.549Z,1012.14
2017-10-12T14:25:05.489Z,1012.18
2017-10-12T14:26:18.060Z,1012.2
2017-10-12T14:27:30.631Z,1012.22
2017-10-12T14:28:43.201Z,1012.26
2017-10-12T14:29:55.449Z,1012.24
2017-10-12T14:31:07.710Z,1012.21
2017-10-12T14:32:19.962Z,1012.27
2017-10-12T14:33:32.211Z,1012.29
2017-10-12T14:34:44.146Z,1012.33
2017-10-12T14:35:56.076Z,1012.3
2017-10-12T14:37:08.025Z,1012.39
2017-10-12T14:38:20.634Z,1012.3